sensor_id;sensor_type;location;lat;lon;timestamp;temperature;humidity
34279;DHT22;20538;51.528;9.942;2022-12-26T00:00:58;10.70;99.90
34279;DHT22;20538;51.528;9.942;2022-12-26T00:03:24;10.60;99.90
34279;DHT22;20538;51.528;9.942;2022-12-26T00:05:50;10.50;99.90
34279;DHT22;20538;51.528;9.942;2022-12-26T00:08:15;10.40;99.90
34279;DHT22;20538;51.528;9.942;2022-12-26T00:10:41;10.40;99.90
34279;DHT22;20538;51.528;9.942;2022-12-26T00:13:06;10.50;99.90
34279;DHT22;20538;51.528;9.942;2022-12-26T00:15:32;10.50;99.90
34279;DHT22;20538;51.528;9.942;2022-12-26T00:17:58;10.40;99.90
34279;DHT22;20538;51.528;9.942;2022-12-26T00:20:23;10.40;99.90
34279;DHT22;20538;51.528;9.942;2022-12-26T00:22:49;10.40;99.90
34279;DHT22;20538;51.528;9.942;2022-12-26T00:25:15;10.50;99.90
34279;DHT22;20538;51.528;9.942;2022-12-26T00:27:40;10.50;99.90
34279;DHT22;20538;51.528;9.942;2022-12-26T00:30:07;10.60;99.90
34279;DHT22;20538;51.528;9.942;2022-12-26T00:32:32;10.60;99.90
34279;DHT22;20538;51.528;9.942;2022-12-26T00:34:58;10.60;99.90
34279;DHT22;20538;51.528;9.942;2022-12-26T00:37:24;10.50;99.90
34279;DHT22;20538;51.528;9.942;2022-12-26T00:39:49;10.40;99.90
34279;DHT22;20538;51.528;9.942;2022-12-26T00:42:15;10.30;99.90
34279;DHT22;20538;51.528;9.942;2022-12-26T00:44:40;10.40;99.90
34279;DHT22;20538;51.528;9.942;2022-12-26T00:47:06;10.40;99.90
34279;DHT22;20538;51.528;9.942;2022-12-26T00:49:31;10.50;99.90
34279;DHT22;20538;51.528;9.942;2022-12-26T00:51:57;10.50;99.90
34279;DHT22;20538;51.528;9.942;2022-12-26T00:54:23;10.50;99.90
34279;DHT22;20538;51.528;9.942;2022-12-26T00:56:48;10.60;99.90
34279;DHT22;20538;51.528;9.942;2022-12-26T00:59:14;10.70;99.90
34279;DHT22;20538;51.528;9.942;2022-12-26T01:01:39;10.70;99.90
34279;DHT22;20538;51.528;9.942;2022-12-26T01:04:05;10.80;99.90
34279;DHT22;20538;51.528;9.942;2022-12-26T01:06:31;10.80;99.90
34279;DHT22;20538;51.528;9.942;2022-12-26T01:08:57;10.80;99.90
34279;DHT22;20538;51.528;9.942;2022-12-26T01:11:24;10.80;99.90
34279;DHT22;20538;51.528;9.942;2022-12-26T01:14:10;10.90;99.90
34279;DHT22;20538;51.528;9.942;2022-12-26T01:16:37;10.90;99.90
34279;DHT22;20538;51.528;9.942;2022-12-26T01:19:03;11.00;99.90
34279;DHT22;20538;51.528;9.942;2022-12-26T01:21:29;11.00;99.90
34279;DHT22;20538;51.528;9.942;2022-12-26T01:23:55;11.00;99.90
34279;DHT22;20538;51.528;9.942;2022-12-26T01:26:21;11.00;99.90
34279;DHT22;20538;51.528;9.942;2022-12-26T01:28:51;11.00;99.90
34279;DHT22;20538;51.528;9.942;2022-12-26T01:31:18;11.00;99.90
34279;DHT22;20538;51.528;9.942;2022-12-26T01:33:43;10.90;99.90
34279;DHT22;20538;51.528;9.942;2022-12-26T01:36:09;10.90;99.90
34279;DHT22;20538;51.528;9.942;2022-12-26T01:38:35;10.90;99.90
34279;DHT22;20538;51.528;9.942;2022-12-26T01:41:00;10.90;99.90
34279;DHT22;20538;51.528;9.942;2022-12-26T01:46:14;11.00;99.90
34279;DHT22;20538;51.528;9.942;2022-12-26T01:48:40;10.90;99.90
34279;DHT22;20538;51.528;9.942;2022-12-26T01:51:06;10.90;99.90
34279;DHT22;20538;51.528;9.942;2022-12-26T01:53:38;10.90;99.90
34279;DHT22;20538;51.528;9.942;2022-12-26T01:56:10;10.90;99.90
34279;DHT22;20538;51.528;9.942;2022-12-26T01:58:48;10.90;99.90
34279;DHT22;20538;51.528;9.942;2022-12-26T02:01:15;10.90;99.90
34279;DHT22;20538;51.528;9.942;2022-12-26T02:03:43;10.90;99.90
34279;DHT22;20538;51.528;9.942;2022-12-26T02:06:29;10.80;99.90
34279;DHT22;20538;51.528;9.942;2022-12-26T02:08:55;10.90;99.90
34279;DHT22;20538;51.528;9.942;2022-12-26T02:11:24;10.80;99.90
34279;DHT22;20538;51.528;9.942;2022-12-26T02:13:52;10.90;99.90
34279;DHT22;20538;51.528;9.942;2022-12-26T02:16:18;10.90;99.90
34279;DHT22;20538;51.528;9.942;2022-12-26T02:18:45;10.90;99.90
34279;DHT22;20538;51.528;9.942;2022-12-26T02:24:09;10.80;99.90
34279;DHT22;20538;51.528;9.942;2022-12-26T02:32:20;10.80;99.90
34279;DHT22;20538;51.528;9.942;2022-12-26T02:35:14;10.70;99.90
34279;DHT22;20538;51.528;9.942;2022-12-26T02:45:53;10.60;99.90
34279;DHT22;20538;51.528;9.942;2022-12-26T02:54:51;10.50;99.90
34279;DHT22;20538;51.528;9.942;2022-12-26T02:57:58;10.50;99.90
34279;DHT22;20538;51.528;9.942;2022-12-26T03:00:54;10.40;99.90
34279;DHT22;20538;51.528;9.942;2022-12-26T03:03:45;10.40;99.90
34279;DHT22;20538;51.528;9.942;2022-12-26T03:06:31;10.30;99.90
34279;DHT22;20538;51.528;9.942;2022-12-26T03:09:28;10.10;99.90
34279;DHT22;20538;51.528;9.942;2022-12-26T03:15:03;9.90;99.90
34279;DHT22;20538;51.528;9.942;2022-12-26T03:17:38;9.90;99.90
34279;DHT22;20538;51.528;9.942;2022-12-26T03:20:11;9.90;99.90
34279;DHT22;20538;51.528;9.942;2022-12-26T03:22:57;9.90;99.90
34279;DHT22;20538;51.528;9.942;2022-12-26T03:25:50;10.00;99.90
34279;DHT22;20538;51.528;9.942;2022-12-26T03:28:36;10.10;99.90
34279;DHT22;20538;51.528;9.942;2022-12-26T03:31:05;10.10;99.90
34279;DHT22;20538;51.528;9.942;2022-12-26T03:33:34;10.00;99.90
34279;DHT22;20538;51.528;9.942;2022-12-26T03:41:59;10.10;99.90
34279;DHT22;20538;51.528;9.942;2022-12-26T03:44:59;10.10;99.90
34279;DHT22;20538;51.528;9.942;2022-12-26T03:47:55;10.20;99.90
34279;DHT22;20538;51.528;9.942;2022-12-26T03:50:46;10.20;99.90
34279;DHT22;20538;51.528;9.942;2022-12-26T03:53:55;10.20;99.90
34279;DHT22;20538;51.528;9.942;2022-12-26T03:56:54;10.20;99.90
34279;DHT22;20538;51.528;9.942;2022-12-26T03:59:51;10.20;99.90
34279;DHT22;20538;51.528;9.942;2022-12-26T04:02:37;10.30;99.90
34279;DHT22;20538;51.528;9.942;2022-12-26T04:05:23;10.30;99.90
34279;DHT22;20538;51.528;9.942;2022-12-26T04:08:13;10.30;99.90
34279;DHT22;20538;51.528;9.942;2022-12-26T04:11:00;10.30;99.90
34279;DHT22;20538;51.528;9.942;2022-12-26T04:13:53;10.40;99.90
34279;DHT22;20538;51.528;9.942;2022-12-26T04:16:58;10.40;99.90
34279;DHT22;20538;51.528;9.942;2022-12-26T04:19:56;10.40;99.90
34279;DHT22;20538;51.528;9.942;2022-12-26T04:25:23;10.40;99.90
34279;DHT22;20538;51.528;9.942;2022-12-26T04:28:10;10.20;99.90
34279;DHT22;20538;51.528;9.942;2022-12-26T04:31:15;10.20;99.90
34279;DHT22;20538;51.528;9.942;2022-12-26T04:34:02;10.10;99.90
34279;DHT22;20538;51.528;9.942;2022-12-26T04:36:53;10.10;99.90
34279;DHT22;20538;51.528;9.942;2022-12-26T04:39:39;10.20;99.90
34279;DHT22;20538;51.528;9.942;2022-12-26T04:42:26;10.20;99.90
34279;DHT22;20538;51.528;9.942;2022-12-26T04:45:12;10.20;99.90
34279;DHT22;20538;51.528;9.942;2022-12-26T04:47:38;10.20;99.90
34279;DHT22;20538;51.528;9.942;2022-12-26T04:50:23;10.10;99.90
34279;DHT22;20538;51.528;9.942;2022-12-26T04:52:49;10.00;99.90
34279;DHT22;20538;51.528;9.942;2022-12-26T04:55:25;10.10;99.90
34279;DHT22;20538;51.528;9.942;2022-12-26T04:57:51;9.90;99.90
34279;DHT22;20538;51.528;9.942;2022-12-26T05:00:17;10.00;99.90
34279;DHT22;20538;51.528;9.942;2022-12-26T05:02:43;10.10;99.90
34279;DHT22;20538;51.528;9.942;2022-12-26T05:05:27;10.10;99.90
34279;DHT22;20538;51.528;9.942;2022-12-26T05:08:33;10.20;99.90
34279;DHT22;20538;51.528;9.942;2022-12-26T05:11:17;10.30;99.90
34279;DHT22;20538;51.528;9.942;2022-12-26T05:13:43;10.30;99.90
34279;DHT22;20538;51.528;9.942;2022-12-26T05:16:09;10.30;99.90
34279;DHT22;20538;51.528;9.942;2022-12-26T05:18:53;10.40;99.90
34279;DHT22;20538;51.528;9.942;2022-12-26T05:21:37;10.40;99.90
34279;DHT22;20538;51.528;9.942;2022-12-26T05:24:22;10.50;99.90
34279;DHT22;20538;51.528;9.942;2022-12-26T05:27:12;10.50;99.90
34279;DHT22;20538;51.528;9.942;2022-12-26T05:29:58;10.50;99.90
34279;DHT22;20538;51.528;9.942;2022-12-26T05:32:24;10.60;99.90
34279;DHT22;20538;51.528;9.942;2022-12-26T05:35:08;10.60;99.90
34279;DHT22;20538;51.528;9.942;2022-12-26T05:37:34;10.60;99.90
34279;DHT22;20538;51.528;9.942;2022-12-26T05:40:00;10.60;99.90
34279;DHT22;20538;51.528;9.942;2022-12-26T05:42:25;10.60;99.90
34279;DHT22;20538;51.528;9.942;2022-12-26T05:44:51;10.60;99.90
34279;DHT22;20538;51.528;9.942;2022-12-26T05:47:16;10.60;99.90
34279;DHT22;20538;51.528;9.942;2022-12-26T05:49:42;10.50;99.90
34279;DHT22;20538;51.528;9.942;2022-12-26T05:52:08;10.50;99.90
34279;DHT22;20538;51.528;9.942;2022-12-26T05:54:34;10.50;99.90
34279;DHT22;20538;51.528;9.942;2022-12-26T05:57:00;10.40;99.90
34279;DHT22;20538;51.528;9.942;2022-12-26T05:59:26;10.40;99.90
34279;DHT22;20538;51.528;9.942;2022-12-26T06:01:52;10.30;99.90
34279;DHT22;20538;51.528;9.942;2022-12-26T06:04:17;10.30;99.90
34279;DHT22;20538;51.528;9.942;2022-12-26T06:06:43;10.20;99.90
34279;DHT22;20538;51.528;9.942;2022-12-26T06:09:08;10.30;99.90
34279;DHT22;20538;51.528;9.942;2022-12-26T06:11:34;10.20;99.90
34279;DHT22;20538;51.528;9.942;2022-12-26T06:14:00;10.20;99.90
34279;DHT22;20538;51.528;9.942;2022-12-26T06:16:26;10.20;99.90
34279;DHT22;20538;51.528;9.942;2022-12-26T06:18:53;10.20;99.90
34279;DHT22;20538;51.528;9.942;2022-12-26T06:21:20;10.20;99.90
34279;DHT22;20538;51.528;9.942;2022-12-26T06:23:46;10.20;99.90
34279;DHT22;20538;51.528;9.942;2022-12-26T06:26:12;10.20;99.90
34279;DHT22;20538;51.528;9.942;2022-12-26T06:28:39;10.10;99.90
34279;DHT22;20538;51.528;9.942;2022-12-26T06:31:10;10.10;99.90
34279;DHT22;20538;51.528;9.942;2022-12-26T06:33:37;10.10;99.90
34279;DHT22;20538;51.528;9.942;2022-12-26T06:36:11;10.10;99.90
34279;DHT22;20538;51.528;9.942;2022-12-26T06:38:37;10.10;99.90
34279;DHT22;20538;51.528;9.942;2022-12-26T06:41:07;10.20;99.90
34279;DHT22;20538;51.528;9.942;2022-12-26T06:43:33;10.30;99.90
34279;DHT22;20538;51.528;9.942;2022-12-26T06:46:00;10.20;99.90
34279;DHT22;20538;51.528;9.942;2022-12-26T06:48:26;10.20;99.90
34279;DHT22;20538;51.528;9.942;2022-12-26T06:50:52;10.20;99.90
34279;DHT22;20538;51.528;9.942;2022-12-26T06:53:19;10.10;99.90
34279;DHT22;20538;51.528;9.942;2022-12-26T06:55:46;10.00;99.90
34279;DHT22;20538;51.528;9.942;2022-12-26T06:58:11;9.90;99.90
34279;DHT22;20538;51.528;9.942;2022-12-26T07:00:37;9.90;99.90
34279;DHT22;20538;51.528;9.942;2022-12-26T07:03:02;9.80;99.90
34279;DHT22;20538;51.528;9.942;2022-12-26T07:05:28;9.80;99.90
34279;DHT22;20538;51.528;9.942;2022-12-26T07:07:54;9.80;99.90
34279;DHT22;20538;51.528;9.942;2022-12-26T07:10:20;9.80;99.90
34279;DHT22;20538;51.528;9.942;2022-12-26T07:12:46;9.80;99.90
34279;DHT22;20538;51.528;9.942;2022-12-26T07:15:12;9.80;99.90
34279;DHT22;20538;51.528;9.942;2022-12-26T07:17:37;9.80;99.90
34279;DHT22;20538;51.528;9.942;2022-12-26T07:20:04;9.80;99.90
34279;DHT22;20538;51.528;9.942;2022-12-26T07:22:29;9.80;99.90
34279;DHT22;20538;51.528;9.942;2022-12-26T07:24:55;9.80;99.90
34279;DHT22;20538;51.528;9.942;2022-12-26T07:27:21;9.80;99.90
34279;DHT22;20538;51.528;9.942;2022-12-26T07:29:46;9.80;99.90
34279;DHT22;20538;51.528;9.942;2022-12-26T07:32:12;9.80;99.90
34279;DHT22;20538;51.528;9.942;2022-12-26T07:34:38;9.80;99.90
34279;DHT22;20538;51.528;9.942;2022-12-26T07:37:03;9.80;99.90
34279;DHT22;20538;51.528;9.942;2022-12-26T07:39:29;9.70;99.90
34279;DHT22;20538;51.528;9.942;2022-12-26T07:41:55;9.70;99.90
34279;DHT22;20538;51.528;9.942;2022-12-26T07:44:28;9.70;99.90
34279;DHT22;20538;51.528;9.942;2022-12-26T07:46:55;9.80;99.90
34279;DHT22;20538;51.528;9.942;2022-12-26T07:49:22;9.70;99.90
34279;DHT22;20538;51.528;9.942;2022-12-26T07:51:48;9.80;99.90
34279;DHT22;20538;51.528;9.942;2022-12-26T07:54:14;9.80;99.90
34279;DHT22;20538;51.528;9.942;2022-12-26T07:56:40;9.80;99.90
34279;DHT22;20538;51.528;9.942;2022-12-26T07:59:13;9.80;99.90
34279;DHT22;20538;51.528;9.942;2022-12-26T08:01:40;9.80;99.90
34279;DHT22;20538;51.528;9.942;2022-12-26T08:04:05;9.80;99.90
34279;DHT22;20538;51.528;9.942;2022-12-26T08:06:31;9.80;99.90
34279;DHT22;20538;51.528;9.942;2022-12-26T08:08:57;9.80;99.90
34279;DHT22;20538;51.528;9.942;2022-12-26T08:11:23;9.80;99.90
34279;DHT22;20538;51.528;9.942;2022-12-26T08:13:50;9.80;99.90
34279;DHT22;20538;51.528;9.942;2022-12-26T08:16:16;9.80;99.90
34279;DHT22;20538;51.528;9.942;2022-12-26T08:18:41;9.80;99.90
34279;DHT22;20538;51.528;9.942;2022-12-26T08:21:08;9.80;99.90
34279;DHT22;20538;51.528;9.942;2022-12-26T08:23:33;9.80;99.90
34279;DHT22;20538;51.528;9.942;2022-12-26T08:26:04;9.90;99.90
34279;DHT22;20538;51.528;9.942;2022-12-26T08:28:30;9.90;99.90
34279;DHT22;20538;51.528;9.942;2022-12-26T08:30:56;9.90;99.90
34279;DHT22;20538;51.528;9.942;2022-12-26T08:33:21;10.00;99.90
34279;DHT22;20538;51.528;9.942;2022-12-26T08:35:47;10.00;99.90
34279;DHT22;20538;51.528;9.942;2022-12-26T08:38:12;10.00;99.90
34279;DHT22;20538;51.528;9.942;2022-12-26T08:40:38;10.00;99.90
34279;DHT22;20538;51.528;9.942;2022-12-26T08:43:03;10.00;99.90
34279;DHT22;20538;51.528;9.942;2022-12-26T08:45:30;10.00;99.90
34279;DHT22;20538;51.528;9.942;2022-12-26T08:47:55;10.00;99.90
34279;DHT22;20538;51.528;9.942;2022-12-26T08:50:22;10.00;99.90
34279;DHT22;20538;51.528;9.942;2022-12-26T08:52:48;10.00;99.90
34279;DHT22;20538;51.528;9.942;2022-12-26T08:55:13;10.00;99.90
34279;DHT22;20538;51.528;9.942;2022-12-26T08:57:39;10.00;99.90
34279;DHT22;20538;51.528;9.942;2022-12-26T09:00:05;10.00;99.90
34279;DHT22;20538;51.528;9.942;2022-12-26T09:02:32;10.00;99.90
34279;DHT22;20538;51.528;9.942;2022-12-26T09:04:57;10.00;99.90
34279;DHT22;20538;51.528;9.942;2022-12-26T09:07:23;10.00;99.90
34279;DHT22;20538;51.528;9.942;2022-12-26T09:09:49;10.00;99.90
34279;DHT22;20538;51.528;9.942;2022-12-26T09:12:15;10.00;99.90
34279;DHT22;20538;51.528;9.942;2022-12-26T09:14:41;10.00;99.90
34279;DHT22;20538;51.528;9.942;2022-12-26T09:17:06;10.00;99.90
34279;DHT22;20538;51.528;9.942;2022-12-26T09:19:32;10.00;99.90
34279;DHT22;20538;51.528;9.942;2022-12-26T09:21:58;10.00;99.90
34279;DHT22;20538;51.528;9.942;2022-12-26T09:24:42;10.00;99.90
34279;DHT22;20538;51.528;9.942;2022-12-26T09:27:08;9.90;99.90
34279;DHT22;20538;51.528;9.942;2022-12-26T09:29:35;9.90;99.90
34279;DHT22;20538;51.528;9.942;2022-12-26T09:32:02;9.90;99.90
34279;DHT22;20538;51.528;9.942;2022-12-26T09:34:28;10.00;99.90
34279;DHT22;20538;51.528;9.942;2022-12-26T09:36:54;10.00;99.90
34279;DHT22;20538;51.528;9.942;2022-12-26T09:39:19;10.00;99.90
34279;DHT22;20538;51.528;9.942;2022-12-26T09:42:04;10.00;99.90
34279;DHT22;20538;51.528;9.942;2022-12-26T09:52:54;10.00;99.90
34279;DHT22;20538;51.528;9.942;2022-12-26T09:57:49;10.00;99.90
34279;DHT22;20538;51.528;9.942;2022-12-26T10:00:22;10.10;99.90
34279;DHT22;20538;51.528;9.942;2022-12-26T10:02:52;10.10;99.90
34279;DHT22;20538;51.528;9.942;2022-12-26T10:05:34;10.10;99.90
34279;DHT22;20538;51.528;9.942;2022-12-26T10:08:47;10.10;99.90
34279;DHT22;20538;51.528;9.942;2022-12-26T10:17:15;10.10;99.90
34279;DHT22;20538;51.528;9.942;2022-12-26T10:23:04;10.10;99.90
34279;DHT22;20538;51.528;9.942;2022-12-26T10:25:47;10.20;99.90
34279;DHT22;20538;51.528;9.942;2022-12-26T10:28:40;10.30;99.90
34279;DHT22;20538;51.528;9.942;2022-12-26T10:36:43;10.30;99.90
34279;DHT22;20538;51.528;9.942;2022-12-26T10:39:26;10.40;99.90
34279;DHT22;20538;51.528;9.942;2022-12-26T10:41:57;10.40;99.90
34279;DHT22;20538;51.528;9.942;2022-12-26T10:44:24;10.40;99.90
34279;DHT22;20538;51.528;9.942;2022-12-26T10:47:06;10.40;99.90
34279;DHT22;20538;51.528;9.942;2022-12-26T10:49:36;10.40;99.90
34279;DHT22;20538;51.528;9.942;2022-12-26T10:52:02;10.40;99.90
34279;DHT22;20538;51.528;9.942;2022-12-26T10:54:29;10.40;99.90
34279;DHT22;20538;51.528;9.942;2022-12-26T10:56:56;10.40;99.90
34279;DHT22;20538;51.528;9.942;2022-12-26T10:59:37;10.50;99.90
34279;DHT22;20538;51.528;9.942;2022-12-26T11:02:32;10.50;99.90
34279;DHT22;20538;51.528;9.942;2022-12-26T11:05:09;10.50;99.90
34279;DHT22;20538;51.528;9.942;2022-12-26T11:07:56;10.50;99.90
34279;DHT22;20538;51.528;9.942;2022-12-26T11:10:28;10.40;99.90
34279;DHT22;20538;51.528;9.942;2022-12-26T11:12:55;10.40;99.90
34279;DHT22;20538;51.528;9.942;2022-12-26T11:15:38;10.40;99.90
34279;DHT22;20538;51.528;9.942;2022-12-26T11:21:23;10.40;99.90
34279;DHT22;20538;51.528;9.942;2022-12-26T11:24:17;10.40;99.90
34279;DHT22;20538;51.528;9.942;2022-12-26T11:26:46;10.30;99.90
34279;DHT22;20538;51.528;9.942;2022-12-26T11:31:59;10.60;99.90
34279;DHT22;20538;51.528;9.942;2022-12-26T11:36:56;10.60;99.90
34279;DHT22;20538;51.528;9.942;2022-12-26T11:39:25;10.60;99.90
34279;DHT22;20538;51.528;9.942;2022-12-26T11:41:51;10.60;99.90
34279;DHT22;20538;51.528;9.942;2022-12-26T11:44:39;10.60;99.90
34279;DHT22;20538;51.528;9.942;2022-12-26T11:47:12;10.60;99.90
34279;DHT22;20538;51.528;9.942;2022-12-26T11:50:06;10.60;99.90
34279;DHT22;20538;51.528;9.942;2022-12-26T11:53:02;10.50;99.90
34279;DHT22;20538;51.528;9.942;2022-12-26T11:55:35;10.50;99.90
34279;DHT22;20538;51.528;9.942;2022-12-26T12:00:36;10.40;99.90
34279;DHT22;20538;51.528;9.942;2022-12-26T12:09:13;10.40;99.90
34279;DHT22;20538;51.528;9.942;2022-12-26T12:14:58;10.40;99.90
34279;DHT22;20538;51.528;9.942;2022-12-26T12:17:47;10.60;99.90
34279;DHT22;20538;51.528;9.942;2022-12-26T12:26:38;10.70;99.90
34279;DHT22;20538;51.528;9.942;2022-12-26T12:35:01;10.80;99.90
34279;DHT22;20538;51.528;9.942;2022-12-26T12:40:19;10.80;99.90
34279;DHT22;20538;51.528;9.942;2022-12-26T12:45:34;10.70;99.90
34279;DHT22;20538;51.528;9.942;2022-12-26T12:58:45;10.80;99.90
34279;DHT22;20538;51.528;9.942;2022-12-26T13:01:23;10.70;99.90
34279;DHT22;20538;51.528;9.942;2022-12-26T13:04:07;10.60;99.90
34279;DHT22;20538;51.528;9.942;2022-12-26T13:09:45;10.50;99.90
34279;DHT22;20538;51.528;9.942;2022-12-26T13:12:22;10.40;99.90
34279;DHT22;20538;51.528;9.942;2022-12-26T13:14:55;10.30;99.90
34279;DHT22;20538;51.528;9.942;2022-12-26T13:17:26;10.10;99.90
34279;DHT22;20538;51.528;9.942;2022-12-26T13:20:01;9.90;99.90
34279;DHT22;20538;51.528;9.942;2022-12-26T13:22:36;9.80;99.90
34279;DHT22;20538;51.528;9.942;2022-12-26T13:25:24;9.80;99.90
34279;DHT22;20538;51.528;9.942;2022-12-26T13:27:53;9.70;99.90
34279;DHT22;20538;51.528;9.942;2022-12-26T13:30:20;9.70;99.90
34279;DHT22;20538;51.528;9.942;2022-12-26T13:32:46;9.70;99.90
34279;DHT22;20538;51.528;9.942;2022-12-26T13:38:17;9.60;99.90
34279;DHT22;20538;51.528;9.942;2022-12-26T13:40:49;9.50;99.90
34279;DHT22;20538;51.528;9.942;2022-12-26T13:43:24;9.60;99.90
34279;DHT22;20538;51.528;9.942;2022-12-26T13:46:51;9.50;99.90
34279;DHT22;20538;51.528;9.942;2022-12-26T13:51:58;9.50;99.90
34279;DHT22;20538;51.528;9.942;2022-12-26T13:54:25;9.40;99.90
34279;DHT22;20538;51.528;9.942;2022-12-26T13:59:42;9.40;99.90
34279;DHT22;20538;51.528;9.942;2022-12-26T14:08:28;9.40;99.90
34279;DHT22;20538;51.528;9.942;2022-12-26T14:16:36;9.30;99.90
34279;DHT22;20538;51.528;9.942;2022-12-26T14:19:46;9.30;99.90
34279;DHT22;20538;51.528;9.942;2022-12-26T14:22:24;9.20;99.90
34279;DHT22;20538;51.528;9.942;2022-12-26T14:27:56;9.10;99.90
34279;DHT22;20538;51.528;9.942;2022-12-26T14:30:34;9.10;99.90
34279;DHT22;20538;51.528;9.942;2022-12-26T14:36:18;9.10;99.90
34279;DHT22;20538;51.528;9.942;2022-12-26T14:41:06;9.00;99.90
34279;DHT22;20538;51.528;9.942;2022-12-26T14:43:37;9.00;99.90
34279;DHT22;20538;51.528;9.942;2022-12-26T14:49:21;9.10;99.90
34279;DHT22;20538;51.528;9.942;2022-12-26T14:51:48;9.30;99.90
34279;DHT22;20538;51.528;9.942;2022-12-26T14:56:47;9.50;99.90
34279;DHT22;20538;51.528;9.942;2022-12-26T14:59:31;9.60;99.90
34279;DHT22;20538;51.528;9.942;2022-12-26T15:05:09;9.70;99.90
34279;DHT22;20538;51.528;9.942;2022-12-26T15:13:54;9.50;99.90
34279;DHT22;20538;51.528;9.942;2022-12-26T15:16:48;9.40;99.90
34279;DHT22;20538;51.528;9.942;2022-12-26T15:33:39;9.30;99.90
34279;DHT22;20538;51.528;9.942;2022-12-26T15:39:18;9.50;99.90
34279;DHT22;20538;51.528;9.942;2022-12-26T15:56:20;9.70;99.90
34279;DHT22;20538;51.528;9.942;2022-12-26T16:01:55;9.50;99.90
34279;DHT22;20538;51.528;9.942;2022-12-26T16:09:44;9.20;99.90
34279;DHT22;20538;51.528;9.942;2022-12-26T16:12:29;9.10;99.90
34279;DHT22;20538;51.528;9.942;2022-12-26T16:15:01;9.10;99.90
34279;DHT22;20538;51.528;9.942;2022-12-26T16:17:27;9.00;99.90
34279;DHT22;20538;51.528;9.942;2022-12-26T16:19:53;8.90;99.90
34279;DHT22;20538;51.528;9.942;2022-12-26T16:22:34;8.90;99.90
34279;DHT22;20538;51.528;9.942;2022-12-26T16:25:24;8.90;99.90
34279;DHT22;20538;51.528;9.942;2022-12-26T16:27:53;8.90;99.90
34279;DHT22;20538;51.528;9.942;2022-12-26T16:30:25;8.80;99.90
34279;DHT22;20538;51.528;9.942;2022-12-26T16:32:51;8.80;99.90
34279;DHT22;20538;51.528;9.942;2022-12-26T16:35:30;8.80;99.90
34279;DHT22;20538;51.528;9.942;2022-12-26T16:37:58;8.80;99.90
34279;DHT22;20538;51.528;9.942;2022-12-26T16:40:32;8.70;99.90
34279;DHT22;20538;51.528;9.942;2022-12-26T16:43:04;8.80;99.90
34279;DHT22;20538;51.528;9.942;2022-12-26T16:45:33;8.80;99.90
34279;DHT22;20538;51.528;9.942;2022-12-26T16:47:59;8.80;99.90
34279;DHT22;20538;51.528;9.942;2022-12-26T16:50:28;8.80;99.90
34279;DHT22;20538;51.528;9.942;2022-12-26T16:53:16;8.80;99.90
34279;DHT22;20538;51.528;9.942;2022-12-26T16:55:44;8.80;99.90
34279;DHT22;20538;51.528;9.942;2022-12-26T16:58:37;8.80;99.90
34279;DHT22;20538;51.528;9.942;2022-12-26T17:01:12;8.80;99.90
34279;DHT22;20538;51.528;9.942;2022-12-26T17:03:58;8.80;99.90
34279;DHT22;20538;51.528;9.942;2022-12-26T17:08:53;8.70;99.90
34279;DHT22;20538;51.528;9.942;2022-12-26T17:11:30;8.70;99.90
34279;DHT22;20538;51.528;9.942;2022-12-26T17:13:58;8.70;99.90
34279;DHT22;20538;51.528;9.942;2022-12-26T17:16:25;8.70;99.90
34279;DHT22;20538;51.528;9.942;2022-12-26T17:19:38;8.60;99.90
34279;DHT22;20538;51.528;9.942;2022-12-26T17:21:38;8.60;99.90
34279;DHT22;20538;51.528;9.942;2022-12-26T17:26:37;8.40;99.90
34279;DHT22;20538;51.528;9.942;2022-12-26T17:29:04;8.30;99.90
34279;DHT22;20538;51.528;9.942;2022-12-26T17:31:38;8.20;99.90
34279;DHT22;20538;51.528;9.942;2022-12-26T17:34:20;8.10;99.90
34279;DHT22;20538;51.528;9.942;2022-12-26T17:36:47;8.00;99.90
34279;DHT22;20538;51.528;9.942;2022-12-26T17:39:20;7.90;99.90
34279;DHT22;20538;51.528;9.942;2022-12-26T17:41:55;7.80;99.90
34279;DHT22;20538;51.528;9.942;2022-12-26T17:44:35;7.80;99.90
34279;DHT22;20538;51.528;9.942;2022-12-26T17:47:26;7.70;99.90
34279;DHT22;20538;51.528;9.942;2022-12-26T17:49:53;7.70;99.90
34279;DHT22;20538;51.528;9.942;2022-12-26T17:52:25;7.70;99.90
34279;DHT22;20538;51.528;9.942;2022-12-26T17:54:52;7.60;99.90
34279;DHT22;20538;51.528;9.942;2022-12-26T17:57:20;7.50;99.90
34279;DHT22;20538;51.528;9.942;2022-12-26T17:59:47;7.40;99.90
34279;DHT22;20538;51.528;9.942;2022-12-26T18:02:13;7.40;99.90
34279;DHT22;20538;51.528;9.942;2022-12-26T18:04:39;7.40;99.90
34279;DHT22;20538;51.528;9.942;2022-12-26T18:07:05;7.20;99.90
34279;DHT22;20538;51.528;9.942;2022-12-26T18:09:31;7.20;99.90
34279;DHT22;20538;51.528;9.942;2022-12-26T18:11:57;7.20;99.90
34279;DHT22;20538;51.528;9.942;2022-12-26T18:14:22;7.20;99.90
34279;DHT22;20538;51.528;9.942;2022-12-26T18:16:49;7.10;99.90
34279;DHT22;20538;51.528;9.942;2022-12-26T18:19:17;7.00;99.90
34279;DHT22;20538;51.528;9.942;2022-12-26T18:21:43;7.00;99.90
34279;DHT22;20538;51.528;9.942;2022-12-26T18:24:09;7.00;99.90
34279;DHT22;20538;51.528;9.942;2022-12-26T18:26:38;7.00;99.90
34279;DHT22;20538;51.528;9.942;2022-12-26T18:29:04;7.00;99.90
34279;DHT22;20538;51.528;9.942;2022-12-26T18:31:29;7.00;99.90
34279;DHT22;20538;51.528;9.942;2022-12-26T18:33:56;7.00;99.90
34279;DHT22;20538;51.528;9.942;2022-12-26T18:36:28;7.00;99.90
34279;DHT22;20538;51.528;9.942;2022-12-26T18:38:54;7.00;99.90
34279;DHT22;20538;51.528;9.942;2022-12-26T18:41:19;6.90;99.90
34279;DHT22;20538;51.528;9.942;2022-12-26T18:43:46;6.90;99.90
34279;DHT22;20538;51.528;9.942;2022-12-26T18:46:15;6.90;99.90
34279;DHT22;20538;51.528;9.942;2022-12-26T18:48:42;6.90;99.90
34279;DHT22;20538;51.528;9.942;2022-12-26T18:51:07;6.80;99.90
34279;DHT22;20538;51.528;9.942;2022-12-26T18:53:33;6.90;99.90
34279;DHT22;20538;51.528;9.942;2022-12-26T18:55:58;6.90;99.90
34279;DHT22;20538;51.528;9.942;2022-12-26T18:58:24;6.90;99.90
34279;DHT22;20538;51.528;9.942;2022-12-26T19:00:50;6.90;99.90
34279;DHT22;20538;51.528;9.942;2022-12-26T19:03:15;6.90;99.90
34279;DHT22;20538;51.528;9.942;2022-12-26T19:05:41;6.90;99.90
34279;DHT22;20538;51.528;9.942;2022-12-26T19:08:07;6.90;99.90
34279;DHT22;20538;51.528;9.942;2022-12-26T19:10:33;6.80;99.90
34279;DHT22;20538;51.528;9.942;2022-12-26T19:12:59;6.80;99.90
34279;DHT22;20538;51.528;9.942;2022-12-26T19:15:30;6.70;99.90
34279;DHT22;20538;51.528;9.942;2022-12-26T19:17:56;6.80;99.90
34279;DHT22;20538;51.528;9.942;2022-12-26T19:20:23;6.80;99.90
34279;DHT22;20538;51.528;9.942;2022-12-26T19:22:50;6.60;99.90
34279;DHT22;20538;51.528;9.942;2022-12-26T19:25:17;6.50;99.90
34279;DHT22;20538;51.528;9.942;2022-12-26T19:27:43;6.50;99.90
34279;DHT22;20538;51.528;9.942;2022-12-26T19:30:09;6.40;99.90
34279;DHT22;20538;51.528;9.942;2022-12-26T19:32:35;6.40;99.90